Time;durP1;ratioP1;P1;durP2;ratioP2;P2;SDS_P1;SDS_P2;PMS_P1;PMS_P2;Temp;Humidity;BMP_temperature;BMP_pressure;BME280_temperature;BME280_humidity;BME280_pressure;Samples;Min_cycle;Max_cycle;Signal;HPM_P1;HPM_P2
2022/08/11 00:01:51;;;;;;;;;;;;;;;25.43;46.38;102094.44;7274943;19;153919;-63
2022/08/11 00:04:21;;;;;;;;;;;;;;;25.42;46.25;102095.59;7278880;19;153268;-63
2022/08/11 00:06:48;;;;;;;;;;;;;;;25.42;46.53;102093.59;7282862;19;152332;-64
2022/08/11 00:09:17;;;;;;;;;;;;;;;25.41;46.34;102083.44;7281649;19;154021;-64
2022/08/11 00:11:49;;;;;;;;;;;;;;;25.41;46.32;102088.25;7289835;19;152527;-62
2022/08/11 00:14:18;;;;;;;;;;;;;;;25.40;46.19;102092.22;7280038;19;154140;-63
2022/08/11 00:17:20;;;;;;;;;;;;;;;25.40;46.74;102090.22;7281115;19;152712;-63
2022/08/11 00:19:48;;;;;;;;;;;;;;;25.41;46.47;102088.25;7272620;19;153888;-63
2022/08/11 00:22:41;;;;;;;;;;;;;;;25.39;46.26;102096.22;7280318;19;156232;-63
2022/08/11 00:25:10;;;;;;;;;;;;;;;25.41;46.50;102097.56;7281580;19;153462;-63
2022/08/11 00:27:38;;;;;;;;;;;;;;;25.41;46.27;102105.22;7281279;19;152880;-63
2022/08/11 00:30:10;;;;;;;;;;;;;;;25.39;46.51;102099.06;7281936;19;153691;-62
2022/08/11 00:32:41;;;;;;;;;;;;;;;25.42;46.35;102101.25;7289912;19;152872;-63
2022/08/11 00:35:11;;;;;;;;;;;;;;;25.41;46.53;102108.91;7275697;19;154845;-62
2022/08/11 00:37:59;;;;;;;;;;;;;;;25.41;46.41;102108.06;7282928;19;151870;-63
2022/08/11 00:40:52;;;;;;;;;;;;;;;25.40;46.37;102106.38;7280852;19;153499;-62
2022/08/11 00:43:36;;;;;;;;;;;;;;;25.41;46.27;102100.41;7279731;19;154102;-63
2022/08/11 00:46:10;;;;;;;;;;;;;;;25.38;46.36;102098.22;7280294;19;153070;-62
2022/08/11 00:48:36;;;;;;;;;;;;;;;25.40;46.70;102100.72;7280063;19;152829;-63
2022/08/11 00:51:10;;;;;;;;;;;;;;;25.40;46.68;102092.22;7279472;19;154681;-63
2022/08/11 00:53:52;;;;;;;;;;;;;;;25.39;46.36;102094.25;7281074;19;151910;-63
2022/08/11 00:56:38;;;;;;;;;;;;;;;25.37;46.41;102088.03;7287639;19;152957;-63
2022/08/11 00:59:20;;;;;;;;;;;;;;;25.39;46.12;102085.75;7279988;19;151969;-63
2022/08/11 01:02:13;;;;;;;;;;;;;;;25.38;46.51;102086.91;7275781;19;153868;-62
2022/08/11 01:04:59;;;;;;;;;;;;;;;25.39;46.41;102084.91;7276335;19;153674;-63
2022/08/11 01:07:54;;;;;;;;;;;;;;;25.38;46.91;102081.25;7280279;19;152363;-62
2022/08/11 01:10:47;;;;;;;;;;;;;;;25.39;46.86;102084.91;7283686;19;153795;-62
2022/08/11 01:13:14;;;;;;;;;;;;;;;25.38;46.70;102077.56;7285715;19;153231;-63
2022/08/11 01:16:09;;;;;;;;;;;;;;;25.37;46.78;102076.72;7283331;19;152214;-62
2022/08/11 01:19:02;;;;;;;;;;;;;;;25.37;46.68;102073.91;7281453;19;154417;-62
2022/08/11 01:21:32;;;;;;;;;;;;;;;25.36;46.44;102065.72;7292237;19;154805;-63
2022/08/11 01:24:09;;;;;;;;;;;;;;;25.37;46.72;102070.22;7285107;19;152702;-63
2022/08/11 01:26:36;;;;;;;;;;;;;;;25.38;46.99;102066.25;7286221;19;152610;-62
2022/08/11 01:29:03;;;;;;;;;;;;;;;25.38;46.93;102066.25;7283166;19;153046;-63
2022/08/11 01:31:43;;;;;;;;;;;;;;;25.38;46.66;102071.91;7280910;19;154195;-62
2022/08/11 01:34:13;;;;;;;;;;;;;;;25.38;46.69;102069.06;7277261;19;152462;-63
2022/08/11 01:36:49;;;;;;;;;;;;;;;25.38;46.59;102069.91;7285472;19;153428;-63
2022/08/11 01:39:49;;;;;;;;;;;;;;;25.36;46.70;102065.72;7282390;19;153463;-63
2022/08/11 01:45:41;;;;;;;;;;;;;;;25.37;46.61;102061.72;7292222;19;151738;-63
2022/08/11 01:48:09;;;;;;;;;;;;;;;25.36;46.64;102049.56;7280690;19;153223;-63
2022/08/11 01:50:39;;;;;;;;;;;;;;;25.36;46.93;102057.22;7279881;19;152914;-63
2022/08/11 01:53:06;;;;;;;;;;;;;;;25.35;46.33;102055.56;7286117;19;152506;-62
2022/08/11 01:55:38;;;;;;;;;;;;;;;25.36;46.81;102052.41;7280682;19;154110;-63
2022/08/11 01:58:14;;;;;;;;;;;;;;;25.39;46.43;102057.44;7282192;19;153050;-63
2022/08/11 02:00:50;;;;;;;;;;;;;;;25.35;46.53;102055.56;7282891;19;153434;-63
2022/08/11 02:03:22;;;;;;;;;;;;;;;25.35;46.59;102055.56;7276832;19;153828;-63
2022/08/11 02:06:00;;;;;;;;;;;;;;;25.37;46.43;102056.91;7279811;19;152311;-62
2022/08/11 02:08:27;;;;;;;;;;;;;;;25.35;46.86;102049.91;7289123;19;153942;-62
2022/08/11 02:14:10;;;;;;;;;;;;;;;25.34;46.60;102053.88;7282284;19;155794;-62
2022/08/11 02:16:55;;;;;;;;;;;;;;;25.32;46.63;102051.38;7281944;19;154204;-63
2022/08/11 02:26:06;;;;;;;;;;;;;;;25.30;46.69;102052.84;7279528;19;155438;-63
2022/08/11 02:28:42;;;;;;;;;;;;;;;25.29;46.54;102042.66;7280159;19;154252;-62
2022/08/11 02:34:44;;;;;;;;;;;;;;;25.30;46.71;102045.19;7283831;19;152301;-62
2022/08/11 02:37:31;;;;;;;;;;;;;;;25.28;46.76;102046.66;7283837;19;153168;-63
2022/08/11 02:40:02;;;;;;;;;;;;;;;25.29;46.41;102040.69;7281257;19;154895;-63
2022/08/11 02:42:35;;;;;;;;;;;;;;;25.29;46.54;102042.66;7282031;19;152492;-63
2022/08/11 02:45:07;;;;;;;;;;;;;;;25.26;46.84;102049.78;7283212;19;152556;-63
2022/08/11 02:50:50;;;;;;;;;;;;;;;25.30;46.56;102044.34;7279635;19;152391;-63
2022/08/11 02:53:17;;;;;;;;;;;;;;;25.28;46.58;102043.81;7280422;19;152114;-63
2022/08/11 02:55:53;;;;;;;;;;;;;;;25.26;46.63;102040.47;7286155;19;153756;-63
2022/08/11 02:58:34;;;;;;;;;;;;;;;25.25;46.82;102036.81;7282826;19;152783;-62
2022/08/11 03:01:31;;;;;;;;;;;;;;;25.23;46.85;102034.28;7267791;19;153547;-63
2022/08/11 03:04:09;;;;;;;;;;;;;;;25.25;46.80;102036.81;7100027;19;3218791;-63
2022/08/11 03:07:12;;;;;;;;;;;;;;;25.24;46.48;102040.78;7283985;19;152666;-63
2022/08/11 03:10:02;;;;;;;;;;;;;;;25.22;46.88;102038.25;7277853;19;154407;-63
2022/08/11 03:18:41;;;;;;;;;;;;;;;25.21;46.82;102038.59;7281053;19;152961;-63
2022/08/11 03:21:23;;;;;;;;;;;;;;;25.23;46.75;102039.94;7291439;19;152685;-62
2022/08/11 03:24:14;;;;;;;;;;;;;;;25.23;46.79;102039.09;7278690;19;154593;-63
2022/08/11 03:26:55;;;;;;;;;;;;;;;25.20;46.74;102043.41;7285279;19;153200;-63
2022/08/11 03:29:30;;;;;;;;;;;;;;;25.27;46.71;102034.47;7283994;19;152691;-63
2022/08/11 03:31:57;;;;;;;;;;;;;;;25.21;46.69;102030.91;7281377;19;156485;-63
2022/08/11 03:34:25;;;;;;;;;;;;;;;25.18;46.91;102034.38;7273056;19;152654;-62
2022/08/11 03:37:03;;;;;;;;;;;;;;;25.20;46.79;102034.09;7264942;19;154522;-63
2022/08/11 03:39:49;;;;;;;;;;;;;;;25.16;46.76;102035.88;7281526;19;153375;-62
2022/08/11 03:42:34;;;;;;;;;;;;;;;25.16;46.92;102035.88;7282767;19;152260;-62
2022/08/11 03:45:15;;;;;;;;;;;;;;;25.16;46.99;102031.06;7286826;19;154246;-62
2022/08/11 03:48:01;;;;;;;;;;;;;;;25.16;46.94;102027.38;7281974;19;152263;-62
2022/08/11 03:50:34;;;;;;;;;;;;;;;25.15;46.88;102023.72;7280400;19;153202;-63
2022/08/11 03:53:16;;;;;;;;;;;;;;;25.12;47.08;102015.81;7282497;19;153298;-63
2022/08/11 03:55:52;;;;;;;;;;;;;;;25.14;47.05;102024.84;7279517;19;153991;-63
2022/08/11 03:58:37;;;;;;;;;;;;;;;25.16;46.80;102021.72;7282715;19;153320;-63
2022/08/11 04:01:36;;;;;;;;;;;;;;;25.13;47.17;102022.31;7282120;19;154857;-63
2022/08/11 04:04:18;;;;;;;;;;;;;;;25.12;47.17;102018.66;7273676;19;152571;-62
2022/08/11 04:07:04;;;;;;;;;;;;;;;25.11;47.12;102017.00;7284030;19;153930;-63
2022/08/11 04:09:34;;;;;;;;;;;;;;;25.10;47.27;102011.66;7287292;19;154013;-63
2022/08/11 04:12:00;;;;;;;;;;;;;;;25.11;47.10;102010.50;7284146;19;153322;-63
2022/08/11 04:17:18;;;;;;;;;;;;;;;25.11;47.51;102005.69;7284248;19;152422;-62
2022/08/11 04:20:05;;;;;;;;;;;;;;;25.11;47.23;102008.53;7281390;19;153689;-63
2022/08/11 04:22:38;;;;;;;;;;;;;;;25.10;47.37;102001.19;7279992;19;153569;-63
2022/08/11 04:25:10;;;;;;;;;;;;;;;25.09;47.48;102005.16;7283383;19;152838;-63
2022/08/11 04:27:58;;;;;;;;;;;;;;;25.11;47.31;102011.34;7282926;19;152096;-63
2022/08/11 04:30:43;;;;;;;;;;;;;;;25.08;47.09;102000.63;7281848;19;153869;-63
2022/08/11 04:33:39;;;;;;;;;;;;;;;25.08;47.39;102000.63;7290134;19;152105;-63
2022/08/11 04:36:08;;;;;;;;;;;;;;;25.07;47.40;102004.66;7279190;19;154736;-63
2022/08/11 04:38:53;;;;;;;;;;;;;;;25.06;47.35;102002.97;7283590;19;152297;-63
2022/08/11 04:43:19;;;;;;;;;;;;;;;25.12;47.78;101992.41;7281825;19;153647;-62
2022/08/11 04:44:52;;;;;;;;;;;;;;;25.08;47.43;102003.47;7281174;19;153788;-62
2022/08/11 05:03:02;;;;;;;;;;;;;;;25.05;48.07;101994.78;7280495;19;151994;-62
2022/08/11 05:05:45;;;;;;;;;;;;;;;25.02;48.13;101996.25;7279447;19;152491;-62
2022/08/11 05:08:40;;;;;;;;;;;;;;;24.98;47.95;101994.38;7280908;19;154673;-63
2022/08/11 05:11:07;;;;;;;;;;;;;;;25.00;48.38;101992.91;7282024;19;152392;-62
2022/08/11 05:37:04;;;;;;;;;;;;;;;24.96;48.70;102017.31;7278379;19;152970;-63
2022/08/11 05:57:06;;;;;;;;;;;;;;;24.98;48.73;102023.50;7285643;19;152353;-63
2022/08/11 05:59:33;;;;;;;;;;;;;;;24.94;48.98;102024.44;7287356;19;153625;-63
2022/08/11 06:02:01;;;;;;;;;;;;;;;24.95;49.14;102023.25;7286236;19;153636;-62
2022/08/11 06:04:28;;;;;;;;;;;;;;;24.95;49.42;102018.44;7282770;19;152517;-63
2022/08/11 06:06:56;;;;;;;;;;;;;;;24.94;49.38;102019.59;7287505;19;153031;-63
2022/08/11 06:09:31;;;;;;;;;;;;;;;24.95;49.55;102017.59;7286482;19;153959;-63
2022/08/11 06:11:59;;;;;;;;;;;;;;;24.95;49.67;102017.59;7293569;19;154764;-63
2022/08/11 06:14:26;;;;;;;;;;;;;;;24.94;49.82;102021.59;7285127;19;153980;-63
2022/08/11 06:16:55;;;;;;;;;;;;;;;24.93;49.83;102015.09;7284499;19;152137;-63
2022/08/11 06:19:28;;;;;;;;;;;;;;;24.91;49.79;102020.22;7283827;19;152663;-63
2022/08/11 06:21:55;;;;;;;;;;;;;;;24.95;49.88;102026.94;7284349;19;153985;-63
2022/08/11 06:24:22;;;;;;;;;;;;;;;24.93;49.79;102028.41;7285664;19;151937;-63
2022/08/11 06:26:50;;;;;;;;;;;;;;;24.93;49.99;102028.41;7287136;19;153777;-63
2022/08/11 06:29:44;;;;;;;;;;;;;;;24.91;49.95;102020.22;7284960;19;152869;-62
2022/08/11 06:32:14;;;;;;;;;;;;;;;24.94;49.91;102021.59;7287179;19;152021;-62
2022/08/11 06:34:59;;;;;;;;;;;;;;;24.93;49.69;102014.28;7289521;19;152866;-62
2022/08/11 06:37:47;;;;;;;;;;;;;;;24.93;50.09;102017.94;7284392;19;153225;-63
2022/08/11 06:40:30;;;;;;;;;;;;;;;24.92;50.41;102021.06;7286133;19;152808;-62
2022/08/11 06:43:01;;;;;;;;;;;;;;;24.93;50.15;102023.59;7285668;19;154267;-63
2022/08/11 06:45:39;;;;;;;;;;;;;;;24.93;50.37;102011.44;7285295;19;151837;-63
2022/08/11 06:48:14;;;;;;;;;;;;;;;24.91;50.22;102008.91;7285192;19;152034;-63
2022/08/11 06:53:33;;;;;;;;;;;;;;;24.92;50.63;102006.94;7284883;19;151963;-63
2022/08/11 07:02:02;;;;;;;;;;;;;;;24.96;51.04;102007.97;7285417;19;153968;-63
2022/08/11 07:04:38;;;;;;;;;;;;;;;24.92;50.78;102013.44;7279226;19;152743;-63
2022/08/11 07:16:14;;;;;;;;;;;;;;;24.93;51.44;102017.94;7285347;19;152143;-62
2022/08/11 07:30:16;;;;;;;;;;;;;;;24.96;51.82;102007.97;7284830;19;153922;-63
2022/08/11 07:32:50;;;;;;;;;;;;;;;24.95;52.03;102015.63;7282633;19;152546;-63
2022/08/11 07:35:19;;;;;;;;;;;;;;;24.95;52.26;102015.63;7281595;19;154689;-63
2022/08/11 07:37:55;;;;;;;;;;;;;;;24.96;52.13;102017.31;7283770;19;154972;-63
2022/08/11 07:40:29;;;;;;;;;;;;;;;24.97;52.21;102020.97;7282858;19;153364;-62
2022/08/11 07:42:57;;;;;;;;;;;;;;;24.95;52.93;102024.09;7283044;19;154184;-62
2022/08/11 07:53:42;;;;;;;;;;;;;;;24.97;52.48;102013.31;7282659;19;153248;-63
2022/08/11 07:56:32;;;;;;;;;;;;;;;24.97;52.73;102024.63;7281777;19;156567;-63
2022/08/11 08:19:02;;;;;;;;;;;;;;;25.01;53.50;102020.03;7279198;19;153261;-63
2022/08/11 08:21:30;;;;;;;;;;;;;;;25.01;53.43;102014.38;7284066;19;152413;-62
2022/08/11 08:23:57;;;;;;;;;;;;;;;25.01;53.42;102014.38;7284045;19;152613;-63
2022/08/11 08:32:03;;;;;;;;;;;;;;;25.04;53.57;102029.88;7284184;19;152239;-62
2022/08/11 08:34:30;;;;;;;;;;;;;;;25.04;53.40;102025.06;7285966;19;153958;-63
2022/08/11 08:36:59;;;;;;;;;;;;;;;25.03;53.17;102023.38;7283667;19;153751;-63
2022/08/11 08:39:25;;;;;;;;;;;;;;;25.06;53.74;102017.09;7280741;19;153573;-63
2022/08/11 08:41:53;;;;;;;;;;;;;;;25.04;53.36;102016.56;7284290;19;152639;-63
2022/08/11 08:44:21;;;;;;;;;;;;;;;25.06;53.57;102016.25;7283541;19;153498;-63
2022/08/11 08:47:09;;;;;;;;;;;;;;;25.04;53.48;102019.41;7281595;19;153146;-62
2022/08/11 08:49:40;;;;;;;;;;;;;;;25.03;53.80;102020.53;7280402;19;152406;-63
2022/08/11 08:52:13;;;;;;;;;;;;;;;25.07;53.42;102020.78;7283430;19;153705;-62
2022/08/11 08:55:01;;;;;;;;;;;;;;;25.07;53.30;102012.28;7281591;19;154464;-63
2022/08/11 08:57:37;;;;;;;;;;;;;;;25.09;52.93;102015.63;7289588;19;152424;-63
2022/08/11 09:00:05;;;;;;;;;;;;;;;25.09;52.88;102009.97;7281695;19;152730;-62
2022/08/11 09:02:35;;;;;;;;;;;;;;;25.09;53.03;102013.63;7281625;19;152336;-62
2022/08/11 09:05:10;;;;;;;;;;;;;;;25.12;53.31;102009.38;7278830;19;153923;-62
2022/08/11 09:07:38;;;;;;;;;;;;;;;25.11;52.71;102005.69;7280610;19;152394;-62
2022/08/11 09:10:10;;;;;;;;;;;;;;;25.13;52.88;101994.03;7280981;19;152046;-65
2022/08/11 09:12:38;;;;;;;;;;;;;;;25.12;52.71;102001.69;7281790;19;153143;-63
2022/08/11 09:15:11;;;;;;;;;;;;;;;25.11;52.80;101996.38;7281286;19;154210;-63
2022/08/11 09:17:40;;;;;;;;;;;;;;;25.14;53.04;101996.56;7280275;19;152269;-62
2022/08/11 09:20:12;;;;;;;;;;;;;;;25.19;53.32;102004.94;7286182;19;154094;-63
2022/08/11 09:28:31;;;;;;;;;;;;;;;25.23;52.79;101991.84;7278904;19;153079;-62
2022/08/11 09:30:59;;;;;;;;;;;;;;;25.22;52.95;101998.66;7284699;19;152351;-63
2022/08/11 09:33:27;;;;;;;;;;;;;;;25.22;52.51;101990.16;7288598;19;153043;-62
2022/08/11 09:35:56;;;;;;;;;;;;;;;25.22;52.26;101995.81;7283579;19;154593;-63
2022/08/11 09:41:15;;;;;;;;;;;;;;;25.23;52.37;101985.34;7293096;19;152768;-62
2022/08/11 09:46:31;;;;;;;;;;;;;;;25.26;52.22;101986.72;7289846;19;153385;-63
2022/08/11 09:48:59;;;;;;;;;;;;;;;25.29;52.19;101988.91;7280533;19;152656;-63
2022/08/11 09:51:29;;;;;;;;;;;;;;;25.26;52.17;101979.06;7288895;19;152989;-64
2022/08/11 09:53:58;;;;;;;;;;;;;;;25.30;52.02;101976.44;7286335;19;152764;-62
2022/08/11 09:59:17;;;;;;;;;;;;;;;25.37;51.63;101968.38;7285735;19;152469;-63
2022/08/11 10:01:45;;;;;;;;;;;;;;;25.37;51.74;101966.38;7286863;19;153452;-63
2022/08/11 10:04:17;;;;;;;;;;;;;;;25.38;51.73;101965.22;7285232;19;155516;-62
2022/08/11 10:07:05;;;;;;;;;;;;;;;25.41;51.88;101960.91;7288158;19;153598;-62
2022/08/11 10:09:32;;;;;;;;;;;;;;;25.46;51.79;101964.47;7285667;19;153909;-63
2022/08/11 10:12:01;;;;;;;;;;;;;;;25.48;51.37;101961.34;7287752;19;152138;-62
2022/08/11 10:17:15;;;;;;;;;;;;;;;25.52;51.39;101956.72;7286981;19;153937;-62
2022/08/11 10:19:44;;;;;;;;;;;;;;;25.53;51.19;101959.19;7283898;19;152315;-63
2022/08/11 10:28:06;;;;;;;;;;;;;;;25.64;51.16;101948.53;7294298;19;154661;-62
2022/08/11 10:36:30;;;;;;;;;;;;;;;25.70;51.32;101943.59;7284205;19;152777;-63
2022/08/11 10:38:58;;;;;;;;;;;;;;;25.70;51.22;101941.59;7282236;19;153276;-62
2022/08/11 10:44:36;;;;;;;;;;;;;;;25.74;51.02;101939.78;7281435;19;156590;-63
2022/08/11 10:51:11;;;;;;;;;;;;;;;25.76;51.33;101934.63;7280342;19;154285;-63
2022/08/11 11:00:57;;;;;;;;;;;;;;;25.86;50.65;101927.88;7282785;19;153261;-64
2022/08/11 11:03:25;;;;;;;;;;;;;;;25.85;50.72;101927.03;7280071;19;153759;-62
2022/08/11 11:05:54;;;;;;;;;;;;;;;25.87;50.55;101921.91;7280008;19;152611;-63
2022/08/11 11:08:52;;;;;;;;;;;;;;;25.88;50.86;101923.59;7280370;19;155956;-63
2022/08/11 11:19:40;;;;;;;;;;;;;;;25.95;50.08;101921.13;7276356;19;152526;-63
2022/08/11 11:25:09;;;;;;;;;;;;;;;25.97;49.98;101920.81;7282076;19;152450;-63
2022/08/11 11:27:51;;;;;;;;;;;;;;;25.97;49.80;101912.31;7282945;19;153208;-63
2022/08/11 11:30:18;;;;;;;;;;;;;;;25.99;49.73;101899.50;7280952;19;153152;-63
2022/08/11 11:32:48;;;;;;;;;;;;;;;25.99;49.91;101907.16;7281990;19;152970;-63
2022/08/11 11:35:15;;;;;;;;;;;;;;;26.00;49.86;101911.66;7281457;19;152125;-63
2022/08/11 11:37:47;;;;;;;;;;;;;;;26.00;49.56;101909.66;7282366;19;152392;-63
2022/08/11 11:40:31;;;;;;;;;;;;;;;26.03;49.63;101908.19;7290403;19;152416;-63
2022/08/11 11:42:59;;;;;;;;;;;;;;;26.05;49.67;101895.38;7282622;19;154153;-63
2022/08/11 11:45:26;;;;;;;;;;;;;;;26.02;49.89;101903.69;7284982;19;152413;-62
2022/08/11 11:47:54;;;;;;;;;;;;;;;26.05;49.47;101898.22;7284993;19;153288;-63
2022/08/11 11:50:22;;;;;;;;;;;;;;;26.05;49.41;101900.22;7280243;19;154381;-63
2022/08/11 11:52:52;;;;;;;;;;;;;;;26.01;50.04;101902.84;7282000;19;152260;-63
2022/08/11 11:55:23;;;;;;;;;;;;;;;26.07;49.79;101886.56;7282778;19;153527;-63
2022/08/11 12:03:33;;;;;;;;;;;;;;;26.06;49.57;101887.72;7279828;19;154211;-62
2022/08/11 12:06:01;;;;;;;;;;;;;;;26.06;49.38;101887.72;7280691;19;152315;-63
2022/08/11 12:08:28;;;;;;;;;;;;;;;26.08;49.18;101880.56;7282139;19;153491;-62
2022/08/11 12:13:45;;;;;;;;;;;;;;;26.10;49.36;101872.59;7283777;19;152506;-62
2022/08/11 12:16:15;;;;;;;;;;;;;;;26.11;49.18;101864.94;7282888;19;153851;-63
2022/08/11 12:19:02;;;;;;;;;;;;;;;26.15;49.24;101867.94;7277641;19;154467;-63
2022/08/11 12:21:29;;;;;;;;;;;;;;;26.16;49.22;101861.13;7281966;19;152276;-63
2022/08/11 12:29:35;;;;;;;;;;;;;;;26.19;49.55;101857.63;7279899;19;154999;-63
2022/08/11 12:32:09;;;;;;;;;;;;;;;26.21;49.33;101852.53;7281330;19;154466;-63
2022/08/11 12:34:36;;;;;;;;;;;;;;;26.17;49.52;101860.78;7280601;19;152455;-63
2022/08/11 12:37:05;;;;;;;;;;;;;;;26.17;49.07;101855.13;7282427;19;153367;-63
2022/08/11 12:45:49;;;;;;;;;;;;;;;26.21;49.39;101844.81;7282255;19;151813;-63
2022/08/11 12:54:34;;;;;;;;;;;;;;;26.19;47.95;101830.13;7279067;19;155926;-63
2022/08/11 13:05:42;;;;;;;;;;;;;;;26.23;48.62;101817.03;7283910;19;152399;-63
2022/08/11 13:08:10;;;;;;;;;;;;;;;26.24;48.63;101807.38;7288903;19;153515;-63
2022/08/11 13:13:23;;;;;;;;;;;;;;;26.23;48.58;101811.34;7296347;19;152363;-63
2022/08/11 13:16:10;;;;;;;;;;;;;;;26.23;48.59;101805.69;7286400;19;156738;-63
2022/08/11 13:18:41;;;;;;;;;;;;;;;26.24;48.35;101804.53;7286470;19;152527;-63
2022/08/11 13:21:11;;;;;;;;;;;;;;;26.26;48.74;101799.34;7285875;19;152525;-63
2022/08/11 13:23:47;;;;;;;;;;;;;;;26.28;48.24;101802.72;7286424;19;153383;-63
2022/08/11 13:26:32;;;;;;;;;;;;;;;26.27;48.29;101797.38;7288456;19;151652;-63
2022/08/11 13:29:25;;;;;;;;;;;;;;;26.26;47.85;101792.84;7288170;19;153289;-63
2022/08/11 13:31:53;;;;;;;;;;;;;;;26.25;48.37;101794.88;7286465;19;153293;-63
2022/08/11 13:34:21;;;;;;;;;;;;;;;26.26;47.96;101790.00;7283205;19;152369;-63
2022/08/11 13:36:54;;;;;;;;;;;;;;;26.27;48.79;101786.03;7293989;19;153110;-63
2022/08/11 13:39:22;;;;;;;;;;;;;;;26.27;48.38;101783.19;7284061;19;152245;-63
2022/08/11 13:41:52;;;;;;;;;;;;;;;26.27;48.36;101786.03;7284620;19;152938;-63
2022/08/11 13:44:19;;;;;;;;;;;;;;;26.26;49.15;101782.34;7285543;19;153163;-63
2022/08/11 13:46:54;;;;;;;;;;;;;;;26.27;48.84;101781.19;7285359;19;151772;-63
2022/08/11 13:49:21;;;;;;;;;;;;;;;26.30;48.34;101782.56;7283928;19;153630;-63
2022/08/11 13:51:48;;;;;;;;;;;;;;;26.31;48.38;101778.53;7286779;19;154031;-63
2022/08/11 13:54:19;;;;;;;;;;;;;;;26.28;48.41;101776.38;7285538;19;153031;-63
2022/08/11 13:56:48;;;;;;;;;;;;;;;26.27;48.31;101778.38;7285454;19;154031;-63
2022/08/11 13:59:19;;;;;;;;;;;;;;;26.28;48.61;101782.88;7292979;19;152455;-63
2022/08/11 14:01:55;;;;;;;;;;;;;;;26.28;48.60;101780.03;7286588;19;152849;-63
2022/08/11 14:04:48;;;;;;;;;;;;;;;26.30;48.34;101786.19;7281676;19;155352;-64
2022/08/11 14:07:17;;;;;;;;;;;;;;;26.30;48.28;101782.56;7287625;19;152559;-63
2022/08/11 14:09:44;;;;;;;;;;;;;;;26.30;48.11;101780.53;7287720;19;152913;-63
2022/08/11 14:15:23;;;;;;;;;;;;;;;26.30;47.88;101776.91;7286580;19;152278;-63
2022/08/11 14:17:52;;;;;;;;;;;;;;;26.29;47.82;101778.06;7285674;19;152736;-63
2022/08/11 14:20:20;;;;;;;;;;;;;;;26.29;48.05;101778.88;7287704;19;153354;-63
2022/08/11 14:23:07;;;;;;;;;;;;;;;26.27;47.56;101775.53;7284946;19;154341;-63
2022/08/11 14:25:34;;;;;;;;;;;;;;;26.30;47.54;101769.19;7285946;19;154093;-63
2022/08/11 14:28:20;;;;;;;;;;;;;;;26.29;46.89;101773.22;7286754;19;153575;-63
2022/08/11 14:30:58;;;;;;;;;;;;;;;26.31;46.65;101767.22;7287254;19;154006;-63
2022/08/11 14:33:27;;;;;;;;;;;;;;;26.31;46.83;101767.22;7285431;19;154264;-63
2022/08/11 14:36:14;;;;;;;;;;;;;;;26.31;47.13;101761.53;7286297;19;152422;-63
2022/08/11 14:38:41;;;;;;;;;;;;;;;26.31;47.31;101755.88;7286531;19;153660;-63
2022/08/11 14:49:27;;;;;;;;;;;;;;;26.32;47.73;101761.22;7281840;19;153538;-63
2022/08/11 14:51:54;;;;;;;;;;;;;;;26.32;47.55;101749.88;7286138;19;153556;-63
2022/08/11 14:57:12;;;;;;;;;;;;;;;26.33;46.98;101753.56;7286309;19;152754;-63
2022/08/11 14:59:39;;;;;;;;;;;;;;;26.33;46.84;101745.91;7284439;19;153370;-63
2022/08/11 15:04:54;;;;;;;;;;;;;;;26.32;46.80;101738.56;7280150;19;151995;-63
2022/08/11 15:07:28;;;;;;;;;;;;;;;26.33;46.71;101750.72;7292177;19;153319;-63
2022/08/11 15:09:59;;;;;;;;;;;;;;;26.32;46.58;101743.38;7284769;19;152233;-63
2022/08/11 15:12:42;;;;;;;;;;;;;;;26.32;46.88;101747.06;7286101;19;152811;-63
2022/08/11 15:18:03;;;;;;;;;;;;;;;26.34;46.98;101746.72;7284369;19;152581;-63
2022/08/11 15:26:06;;;;;;;;;;;;;;;26.35;46.75;101739.88;7282667;19;152771;-63
2022/08/11 15:45:49;;;;;;;;;;;;;;;26.37;46.78;101721.41;7282919;19;154525;-63
2022/08/11 15:48:33;;;;;;;;;;;;;;;26.37;46.79;101729.91;7284173;19;152838;-63
2022/08/11 15:51:04;;;;;;;;;;;;;;;26.43;47.23;101730.59;7281653;19;155358;-63
2022/08/11 15:53:33;;;;;;;;;;;;;;;26.45;48.21;101725.41;7280112;19;154117;-63
2022/08/11 15:56:02;;;;;;;;;;;;;;;26.43;48.53;101733.41;7291308;19;152064;-63
2022/08/11 16:04:26;;;;;;;;;;;;;;;26.44;49.56;101720.91;7278764;19;153202;-63
2022/08/11 16:06:53;;;;;;;;;;;;;;;26.45;50.12;101720.56;7283468;19;154299;-63
2022/08/11 16:09:23;;;;;;;;;;;;;;;26.46;49.54;101722.25;7283708;19;152121;-63
2022/08/11 16:11:53;;;;;;;;;;;;;;;26.61;50.42;101722.94;7284419;19;153503;-66
2022/08/11 16:17:09;;;;;;;;;;;;;;;26.67;50.02;101713.94;7287892;19;152498;-63
2022/08/11 16:19:36;;;;;;;;;;;;;;;26.70;49.64;101718.97;7277659;19;153017;-64
2022/08/11 16:22:06;;;;;;;;;;;;;;;26.69;49.97;101713.63;7283692;19;153805;-64
2022/08/11 16:24:35;;;;;;;;;;;;;;;26.67;49.33;101727.28;7282183;19;154423;-65
2022/08/11 16:27:21;;;;;;;;;;;;;;;26.67;49.62;101722.44;7281882;19;156123;-64
2022/08/11 16:29:50;;;;;;;;;;;;;;;26.63;49.34;101715.78;7284460;19;152528;-64
2022/08/11 16:32:22;;;;;;;;;;;;;;;26.61;50.20;101720.94;7283300;19;153317;-64
2022/08/11 16:40:26;;;;;;;;;;;;;;;26.60;50.15;101719.28;7286306;19;152657;-63
2022/08/11 16:48:27;;;;;;;;;;;;;;;26.58;49.11;101707.41;7282295;19;154187;-64
2022/08/11 16:51:07;;;;;;;;;;;;;;;26.56;49.50;101712.59;7282411;19;152832;-64
2022/08/11 16:53:34;;;;;;;;;;;;;;;26.55;50.13;101702.44;7281634;19;153471;-64
2022/08/11 16:56:24;;;;;;;;;;;;;;;26.53;48.77;101699.91;7281171;19;154192;-64
2022/08/11 17:01:38;;;;;;;;;;;;;;;26.53;49.71;101696.25;7279991;19;153263;-64
2022/08/11 17:13:10;;;;;;;;;;;;;;;26.51;48.59;101692.91;7281568;19;151728;-64
2022/08/11 17:18:44;;;;;;;;;;;;;;;26.48;49.32;101693.59;7281034;19;153211;-63
2022/08/11 17:21:11;;;;;;;;;;;;;;;26.47;49.33;101677.75;7280188;19;151806;-64
2022/08/11 17:23:46;;;;;;;;;;;;;;;26.47;49.39;101687.09;7282408;19;152329;-64
2022/08/11 17:26:15;;;;;;;;;;;;;;;26.46;48.60;101688.25;7279137;19;153412;-64
2022/08/11 17:28:43;;;;;;;;;;;;;;;26.44;48.48;101686.88;7286953;19;151960;-63
2022/08/11 17:36:50;;;;;;;;;;;;;;;26.44;48.56;101681.22;7282841;19;153740;-64
2022/08/11 17:39:17;;;;;;;;;;;;;;;26.42;47.35;101675.06;7280095;19;153919;-64
2022/08/11 17:50:04;;;;;;;;;;;;;;;26.39;48.00;101675.75;7279611;19;153190;-63
2022/08/11 18:01:04;;;;;;;;;;;;;;;26.37;47.90;101678.06;7282625;19;154231;-63
2022/08/11 18:03:38;;;;;;;;;;;;;;;26.37;48.13;101683.72;7284392;19;152000;-63
2022/08/11 18:06:07;;;;;;;;;;;;;;;26.36;47.92;101673.53;7287076;19;152780;-63
